sensor_id;sensor_type;location;lat;lon;timestamp;pressure;altitude;pressure_sealevel;temperature;humidity
22662;BME280;11497;52.222;21.246;2023-05-22T00:01:48;100857.47;;;9.57;100.00
22662;BME280;11497;52.222;21.246;2023-05-22T00:04:16;100864.41;;;9.58;100.00
22662;BME280;11497;52.222;21.246;2023-05-22T00:06:48;100861.13;;;9.50;100.00
22662;BME280;11497;52.222;21.246;2023-05-22T00:09:16;100861.13;;;9.50;100.00
22662;BME280;11497;52.222;21.246;2023-05-22T00:11:44;100862.94;;;9.48;100.00
22662;BME280;11497;52.222;21.246;2023-05-22T00:14:12;100859.19;;;9.58;100.00
22662;BME280;11497;52.222;21.246;2023-05-22T00:16:40;100857.34;;;9.63;100.00
22662;BME280;11497;52.222;21.246;2023-05-22T00:19:09;100861.00;;;9.55;100.00
22662;BME280;11497;52.222;21.246;2023-05-22T00:21:43;100852.59;;;9.42;100.00
22662;BME280;11497;52.222;21.246;2023-05-22T00:24:12;100850.75;;;9.47;100.00
22662;BME280;11497;52.222;21.246;2023-05-22T00:26:39;100849.16;;;9.40;100.00
22662;BME280;11497;52.222;21.246;2023-05-22T00:29:07;100854.53;;;9.32;100.00
22662;BME280;11497;52.222;21.246;2023-05-22T00:31:36;100856.47;;;9.23;100.00
22662;BME280;11497;52.222;21.246;2023-05-22T00:34:04;100848.81;;;9.14;100.00
22662;BME280;11497;52.222;21.246;2023-05-22T00:36:32;100847.94;;;9.15;100.00
22662;BME280;11497;52.222;21.246;2023-05-22T00:39:00;100849.53;;;9.22;100.00
22662;BME280;11497;52.222;21.246;2023-05-22T00:41:28;100847.09;;;9.13;100.00
22662;BME280;11497;52.222;21.246;2023-05-22T00:43:56;100849.84;;;9.07;100.00
22662;BME280;11497;52.222;21.246;2023-05-22T00:46:24;100851.66;;;9.05;100.00
22662;BME280;11497;52.222;21.246;2023-05-22T00:48:52;100844.75;;;9.00;100.00
22662;BME280;11497;52.222;21.246;2023-05-22T00:51:21;100848.19;;;9.03;100.00
22662;BME280;11497;52.222;21.246;2023-05-22T00:53:49;100842.97;;;9.03;100.00
22662;BME280;11497;52.222;21.246;2023-05-22T00:56:17;100852.47;;;9.07;100.00
22662;BME280;11497;52.222;21.246;2023-05-22T00:58:46;100844.50;;;9.13;100.00
22662;BME280;11497;52.222;21.246;2023-05-22T01:01:14;100845.47;;;9.09;100.00
22662;BME280;11497;52.222;21.246;2023-05-22T01:03:43;100844.69;;;9.04;100.00
22662;BME280;11497;52.222;21.246;2023-05-22T01:06:16;100845.69;;;8.98;100.00
22662;BME280;11497;52.222;21.246;2023-05-22T01:08:45;100848.31;;;8.96;100.00
22662;BME280;11497;52.222;21.246;2023-05-22T01:14:22;100852.47;;;9.07;100.00
22662;BME280;11497;52.222;21.246;2023-05-22T01:22:37;100850.47;;;8.73;100.00
22662;BME280;11497;52.222;21.246;2023-05-22T01:25:18;100836.44;;;8.80;100.00
22662;BME280;11497;52.222;21.246;2023-05-22T01:33:19;100831.31;;;8.74;100.00
22662;BME280;11497;52.222;21.246;2023-05-22T01:35:51;100846.97;;;8.76;100.00
22662;BME280;11497;52.222;21.246;2023-05-22T01:38:21;100849.31;;;8.89;100.00
22662;BME280;11497;52.222;21.246;2023-05-22T01:40:49;100849.47;;;8.80;100.00
22662;BME280;11497;52.222;21.246;2023-05-22T01:43:17;100841.88;;;8.68;100.00
22662;BME280;11497;52.222;21.246;2023-05-22T01:45:46;100847.09;;;8.68;100.00
22662;BME280;11497;52.222;21.246;2023-05-22T01:48:13;100841.06;;;8.66;100.00
22662;BME280;11497;52.222;21.246;2023-05-22T01:50:41;100843.69;;;8.66;100.00
22662;BME280;11497;52.222;21.246;2023-05-22T01:53:29;100846.44;;;8.57;100.00
22662;BME280;11497;52.222;21.246;2023-05-22T01:56:06;100849.00;;;8.60;100.00
22662;BME280;11497;52.222;21.246;2023-05-22T02:01:19;100853.63;;;8.44;100.00
22662;BME280;11497;52.222;21.246;2023-05-22T02:03:50;100855.50;;;8.36;100.00
22662;BME280;11497;52.222;21.246;2023-05-22T02:06:26;100849.00;;;8.60;100.00
22662;BME280;11497;52.222;21.246;2023-05-22T02:08:55;100856.81;;;8.61;100.00
22662;BME280;11497;52.222;21.246;2023-05-22T02:11:24;100847.53;;;8.44;100.00
22662;BME280;11497;52.222;21.246;2023-05-22T02:13:55;100853.78;;;8.32;100.00
22662;BME280;11497;52.222;21.246;2023-05-22T02:16:24;100852.06;;;8.31;100.00
22662;BME280;11497;52.222;21.246;2023-05-22T02:18:59;100852.91;;;8.34;100.00
22662;BME280;11497;52.222;21.246;2023-05-22T02:21:34;100846.78;;;8.37;100.00
22662;BME280;11497;52.222;21.246;2023-05-22T02:24:02;100850.25;;;8.38;100.00
22662;BME280;11497;52.222;21.246;2023-05-22T02:26:30;100851.09;;;8.40;100.00
22662;BME280;11497;52.222;21.246;2023-05-22T02:29:00;100848.28;;;8.52;100.00
22662;BME280;11497;52.222;21.246;2023-05-22T02:31:28;100848.41;;;8.44;100.00
22662;BME280;11497;52.222;21.246;2023-05-22T02:33:56;100855.38;;;8.44;100.00
22662;BME280;11497;52.222;21.246;2023-05-22T02:36:24;100852.00;;;8.37;100.00
22662;BME280;11497;52.222;21.246;2023-05-22T02:38:53;100852.00;;;8.37;100.00
22662;BME280;11497;52.222;21.246;2023-05-22T02:41:23;100842.97;;;8.56;100.00
22662;BME280;11497;52.222;21.246;2023-05-22T02:43:52;100852.50;;;8.59;100.00
22662;BME280;11497;52.222;21.246;2023-05-22T02:46:20;100844.25;;;8.82;100.00
22662;BME280;11497;52.222;21.246;2023-05-22T02:48:48;100846.09;;;8.75;100.00
22662;BME280;11497;52.222;21.246;2023-05-22T02:51:18;100841.66;;;8.80;100.00
22662;BME280;11497;52.222;21.246;2023-05-22T02:53:46;100841.50;;;8.88;100.00
22662;BME280;11497;52.222;21.246;2023-05-22T02:56:14;100824.00;;;8.94;100.00
22662;BME280;11497;52.222;21.246;2023-05-22T02:58:42;100838.09;;;8.84;100.00
22662;BME280;11497;52.222;21.246;2023-05-22T03:01:10;100838.03;;;8.87;100.00
22662;BME280;11497;52.222;21.246;2023-05-22T03:03:38;100842.97;;;9.03;100.00
22662;BME280;11497;52.222;21.246;2023-05-22T03:06:06;100832.41;;;9.09;100.00
22662;BME280;11497;52.222;21.246;2023-05-22T03:08:35;100823.75;;;9.07;100.00
22662;BME280;11497;52.222;21.246;2023-05-22T03:11:08;100831.53;;;9.10;100.00
22662;BME280;11497;52.222;21.246;2023-05-22T03:13:36;100826.97;;;9.18;100.00
22662;BME280;11497;52.222;21.246;2023-05-22T03:16:04;100828.44;;;9.31;100.00
22662;BME280;11497;52.222;21.246;2023-05-22T03:18:32;100836.94;;;9.42;100.00
22662;BME280;11497;52.222;21.246;2023-05-22T03:21:00;100823.84;;;9.44;100.00
22662;BME280;11497;52.222;21.246;2023-05-22T03:23:28;100830.03;;;9.38;99.97
22662;BME280;11497;52.222;21.246;2023-05-22T03:25:56;100816.78;;;9.47;99.72
22662;BME280;11497;52.222;21.246;2023-05-22T03:28:28;100821.66;;;9.99;99.23
22662;BME280;11497;52.222;21.246;2023-05-22T03:30:56;100824.19;;;10.40;98.37
22662;BME280;11497;52.222;21.246;2023-05-22T03:33:28;100826.97;;;10.66;96.83
22662;BME280;11497;52.222;21.246;2023-05-22T03:35:56;100828.53;;;11.04;95.02
22662;BME280;11497;52.222;21.246;2023-05-22T03:38:24;100829.19;;;11.42;92.77
22662;BME280;11497;52.222;21.246;2023-05-22T03:40:53;100831.75;;;11.43;90.76
22662;BME280;11497;52.222;21.246;2023-05-22T03:43:21;100830.22;;;11.36;89.77
22662;BME280;11497;52.222;21.246;2023-05-22T03:45:50;100836.31;;;11.37;89.00
22662;BME280;11497;52.222;21.246;2023-05-22T03:48:18;100836.44;;;11.32;88.35
22662;BME280;11497;52.222;21.246;2023-05-22T03:50:46;100838.19;;;11.31;88.12
22662;BME280;11497;52.222;21.246;2023-05-22T03:53:14;100836.31;;;11.37;87.63
22662;BME280;11497;52.222;21.246;2023-05-22T03:55:42;100828.31;;;11.41;87.14
22662;BME280;11497;52.222;21.246;2023-05-22T03:58:10;100831.03;;;11.38;86.57
22662;BME280;11497;52.222;21.246;2023-05-22T04:00:38;100832.75;;;11.39;86.75
22662;BME280;11497;52.222;21.246;2023-05-22T04:03:07;100836.13;;;11.43;86.37
22662;BME280;11497;52.222;21.246;2023-05-22T04:05:40;100833.66;;;11.68;85.88
22662;BME280;11497;52.222;21.246;2023-05-22T04:08:09;100832.38;;;11.81;85.16
22662;BME280;11497;52.222;21.246;2023-05-22T04:10:37;100834.50;;;12.22;84.29
22662;BME280;11497;52.222;21.246;2023-05-22T04:13:05;100832.31;;;12.37;84.07
22662;BME280;11497;52.222;21.246;2023-05-22T04:15:33;100831.19;;;12.44;83.20
22662;BME280;11497;52.222;21.246;2023-05-22T04:18:01;100837.63;;;13.08;81.07
22662;BME280;11497;52.222;21.246;2023-05-22T04:20:29;100838.72;;;13.03;79.93
22662;BME280;11497;52.222;21.246;2023-05-22T04:22:58;100835.22;;;13.27;79.68
22662;BME280;11497;52.222;21.246;2023-05-22T04:25:26;100831.09;;;14.52;77.13
22662;BME280;11497;52.222;21.246;2023-05-22T04:27:54;100823.09;;;16.24;69.68
22662;BME280;11497;52.222;21.246;2023-05-22T04:30:22;100826.63;;;15.89;68.05
22662;BME280;11497;52.222;21.246;2023-05-22T04:32:52;100827.00;;;16.69;63.24
22662;BME280;11497;52.222;21.246;2023-05-22T04:35:22;100819.38;;;16.63;62.42
22662;BME280;11497;52.222;21.246;2023-05-22T04:37:50;100819.19;;;15.97;62.57
22662;BME280;11497;52.222;21.246;2023-05-22T04:40:18;100815.06;;;15.91;62.33
22662;BME280;11497;52.222;21.246;2023-05-22T04:42:46;100816.22;;;15.67;62.54
22662;BME280;11497;52.222;21.246;2023-05-22T04:45:14;100813.59;;;15.48;62.54
22662;BME280;11497;52.222;21.246;2023-05-22T04:47:42;100818.38;;;15.40;62.98
22662;BME280;11497;52.222;21.246;2023-05-22T04:50:10;100813.38;;;15.53;63.35
22662;BME280;11497;52.222;21.246;2023-05-22T04:52:38;100809.66;;;15.76;63.06
22662;BME280;11497;52.222;21.246;2023-05-22T04:55:06;100807.03;;;15.76;62.59
22662;BME280;11497;52.222;21.246;2023-05-22T04:57:35;100811.38;;;15.77;62.97
22662;BME280;11497;52.222;21.246;2023-05-22T05:00:03;100812.06;;;15.99;62.26
22662;BME280;11497;52.222;21.246;2023-05-22T05:02:33;100816.25;;;16.20;61.14
22662;BME280;11497;52.222;21.246;2023-05-22T05:05:02;100805.78;;;16.02;61.67
22662;BME280;11497;52.222;21.246;2023-05-22T05:07:30;100805.09;;;16.33;61.82
22662;BME280;11497;52.222;21.246;2023-05-22T05:09:58;100808.75;;;16.98;60.62
22662;BME280;11497;52.222;21.246;2023-05-22T05:12:26;100814.31;;;17.89;58.57
22662;BME280;11497;52.222;21.246;2023-05-22T05:14:55;100816.94;;;17.57;58.00
22662;BME280;11497;52.222;21.246;2023-05-22T05:17:22;100813.94;;;17.48;58.03
22662;BME280;11497;52.222;21.246;2023-05-22T05:19:50;100827.84;;;17.69;55.94
22662;BME280;11497;52.222;21.246;2023-05-22T05:22:18;100821.69;;;17.68;55.71
22662;BME280;11497;52.222;21.246;2023-05-22T05:24:46;100821.31;;;17.58;55.78
22662;BME280;11497;52.222;21.246;2023-05-22T05:27:14;100821.78;;;17.67;54.80
22662;BME280;11497;52.222;21.246;2023-05-22T05:29:44;100830.63;;;17.81;54.55
22662;BME280;11497;52.222;21.246;2023-05-22T05:32:21;100824.56;;;17.95;53.73
22662;BME280;11497;52.222;21.246;2023-05-22T05:35:11;100817.22;;;17.84;54.95
22662;BME280;11497;52.222;21.246;2023-05-22T05:37:48;100828.13;;;18.10;53.80
22662;BME280;11497;52.222;21.246;2023-05-22T05:40:17;100826.38;;;18.24;52.63
22662;BME280;11497;52.222;21.246;2023-05-22T05:42:50;100824.53;;;18.41;52.66
22662;BME280;11497;52.222;21.246;2023-05-22T05:45:22;100828.63;;;18.46;52.75
22662;BME280;11497;52.222;21.246;2023-05-22T05:47:51;100825.75;;;18.65;52.35
22662;BME280;11497;52.222;21.246;2023-05-22T05:50:20;100824.53;;;18.41;51.15
22662;BME280;11497;52.222;21.246;2023-05-22T05:52:47;100819.09;;;19.02;51.20
22662;BME280;11497;52.222;21.246;2023-05-22T05:55:18;100825.38;;;19.98;49.96
22662;BME280;11497;52.222;21.246;2023-05-22T05:57:47;100825.97;;;20.42;49.12
22662;BME280;11497;52.222;21.246;2023-05-22T06:00:22;100829.03;;;21.87;46.46
22662;BME280;11497;52.222;21.246;2023-05-22T06:02:51;100830.31;;;21.94;44.55
22662;BME280;11497;52.222;21.246;2023-05-22T06:05:33;100821.16;;;21.85;44.52
22662;BME280;11497;52.222;21.246;2023-05-22T06:08:16;100826.09;;;22.62;43.73
22662;BME280;11497;52.222;21.246;2023-05-22T06:10:46;100826.81;;;23.21;42.23
22662;BME280;11497;52.222;21.246;2023-05-22T06:13:32;100824.88;;;23.57;42.23
22662;BME280;11497;52.222;21.246;2023-05-22T06:16:01;100823.03;;;24.00;41.25
22662;BME280;11497;52.222;21.246;2023-05-22T06:18:33;100816.78;;;24.22;39.43
22662;BME280;11497;52.222;21.246;2023-05-22T06:21:01;100813.47;;;23.98;39.15
22662;BME280;11497;52.222;21.246;2023-05-22T06:23:29;100817.00;;;24.51;38.25
22662;BME280;11497;52.222;21.246;2023-05-22T06:25:58;100821.06;;;24.13;37.32
22662;BME280;11497;52.222;21.246;2023-05-22T06:28:26;100818.47;;;23.91;37.64
22662;BME280;11497;52.222;21.246;2023-05-22T06:30:56;100817.69;;;23.68;37.91
22662;BME280;11497;52.222;21.246;2023-05-22T06:33:26;100810.63;;;23.45;38.73
22662;BME280;11497;52.222;21.246;2023-05-22T06:35:55;100820.38;;;23.35;36.37
22662;BME280;11497;52.222;21.246;2023-05-22T06:38:23;100810.28;;;23.16;35.64
22662;BME280;11497;52.222;21.246;2023-05-22T06:40:51;100814.78;;;23.04;35.97
22662;BME280;11497;52.222;21.246;2023-05-22T06:43:22;100813.81;;;23.05;35.17
22662;BME280;11497;52.222;21.246;2023-05-22T06:45:54;100804.72;;;23.19;34.78
22662;BME280;11497;52.222;21.246;2023-05-22T06:48:22;100816.50;;;23.39;34.10
22662;BME280;11497;52.222;21.246;2023-05-22T06:51:01;100813.44;;;23.66;32.87
22662;BME280;11497;52.222;21.246;2023-05-22T06:53:29;100810.13;;;24.16;32.56
22662;BME280;11497;52.222;21.246;2023-05-22T06:55:57;100808.78;;;25.15;32.02
22662;BME280;11497;52.222;21.246;2023-05-22T06:58:35;100813.00;;;26.27;31.95
22662;BME280;11497;52.222;21.246;2023-05-22T07:01:05;100808.56;;;26.83;30.42
22662;BME280;11497;52.222;21.246;2023-05-22T07:03:39;100809.59;;;26.54;29.48
22662;BME280;11497;52.222;21.246;2023-05-22T07:06:27;100804.41;;;26.42;29.77
22662;BME280;11497;52.222;21.246;2023-05-22T07:08:55;100804.84;;;27.31;29.95
22662;BME280;11497;52.222;21.246;2023-05-22T07:11:24;100805.63;;;29.01;28.20
22662;BME280;11497;52.222;21.246;2023-05-22T07:13:52;100808.22;;;30.68;25.67
22662;BME280;11497;52.222;21.246;2023-05-22T07:16:21;100805.78;;;32.30;24.25
22662;BME280;11497;52.222;21.246;2023-05-22T07:18:50;100812.94;;;34.14;22.04
22662;BME280;11497;52.222;21.246;2023-05-22T07:21:18;100812.94;;;34.14;22.04
22662;BME280;11497;52.222;21.246;2023-05-22T07:23:47;100808.47;;;36.60;18.81
22662;BME280;11497;52.222;21.246;2023-05-22T07:26:15;100807.78;;;36.91;18.65
22662;BME280;11497;52.222;21.246;2023-05-22T07:28:49;100809.44;;;35.86;18.75
22662;BME280;11497;52.222;21.246;2023-05-22T07:31:18;100803.59;;;35.89;18.57
22662;BME280;11497;52.222;21.246;2023-05-22T07:33:47;100804.00;;;37.63;17.98
22662;BME280;11497;52.222;21.246;2023-05-22T07:36:16;100802.53;;;38.30;17.13
22662;BME280;11497;52.222;21.246;2023-05-22T07:38:45;100796.13;;;38.86;16.37
22662;BME280;11497;52.222;21.246;2023-05-22T07:41:14;100800.88;;;39.15;16.45
22662;BME280;11497;52.222;21.246;2023-05-22T07:43:42;100792.31;;;39.90;15.27
22662;BME280;11497;52.222;21.246;2023-05-22T07:46:14;100785.59;;;39.74;15.56
22662;BME280;11497;52.222;21.246;2023-05-22T07:48:53;100785.13;;;40.19;14.64
22662;BME280;11497;52.222;21.246;2023-05-22T07:51:21;100785.28;;;39.34;14.75
22662;BME280;11497;52.222;21.246;2023-05-22T07:53:52;100782.25;;;39.72;14.29
22662;BME280;11497;52.222;21.246;2023-05-22T07:56:20;100778.00;;;39.58;14.20
22662;BME280;11497;52.222;21.246;2023-05-22T07:58:50;100790.22;;;39.25;14.83
22662;BME280;11497;52.222;21.246;2023-05-22T08:01:21;100778.16;;;39.63;14.33
22662;BME280;11497;52.222;21.246;2023-05-22T08:03:49;100772.91;;;39.92;14.22
22662;BME280;11497;52.222;21.246;2023-05-22T08:06:17;100781.72;;;39.94;13.96
22662;BME280;11497;52.222;21.246;2023-05-22T08:08:45;100780.94;;;39.27;13.96
22662;BME280;11497;52.222;21.246;2023-05-22T08:11:13;100779.63;;;39.77;14.18
22662;BME280;11497;52.222;21.246;2023-05-22T08:13:41;100776.66;;;40.20;14.05
22662;BME280;11497;52.222;21.246;2023-05-22T08:16:09;100781.78;;;40.17;13.80
22662;BME280;11497;52.222;21.246;2023-05-22T08:18:37;100779.06;;;40.99;13.42
22662;BME280;11497;52.222;21.246;2023-05-22T08:21:05;100772.97;;;40.73;13.36
22662;BME280;11497;52.222;21.246;2023-05-22T08:23:33;100772.88;;;40.45;12.34
22662;BME280;11497;52.222;21.246;2023-05-22T08:26:03;100773.00;;;39.55;13.44
22662;BME280;11497;52.222;21.246;2023-05-22T08:28:31;100766.25;;;38.41;13.85
22662;BME280;11497;52.222;21.246;2023-05-22T08:30:59;100771.59;;;38.54;14.05
22662;BME280;11497;52.222;21.246;2023-05-22T08:33:27;100767.84;;;37.16;14.75
22662;BME280;11497;52.222;21.246;2023-05-22T08:35:55;100769.66;;;36.12;15.41
22662;BME280;11497;52.222;21.246;2023-05-22T08:38:23;100769.31;;;35.13;15.63
22662;BME280;11497;52.222;21.246;2023-05-22T08:40:53;100770.31;;;34.70;15.89
22662;BME280;11497;52.222;21.246;2023-05-22T08:43:23;100769.91;;;34.18;16.09
22662;BME280;11497;52.222;21.246;2023-05-22T08:46:04;100759.13;;;34.52;16.58
22662;BME280;11497;52.222;21.246;2023-05-22T08:48:32;100751.78;;;35.22;16.42
22662;BME280;11497;52.222;21.246;2023-05-22T08:51:04;100760.41;;;35.99;15.84
22662;BME280;11497;52.222;21.246;2023-05-22T08:53:34;100764.13;;;36.97;15.47
22662;BME280;11497;52.222;21.246;2023-05-22T08:56:06;100761.84;;;35.21;15.11
22662;BME280;11497;52.222;21.246;2023-05-22T08:58:36;100753.81;;;35.61;15.03
22662;BME280;11497;52.222;21.246;2023-05-22T09:01:05;100759.09;;;35.08;14.92
22662;BME280;11497;52.222;21.246;2023-05-22T09:03:35;100755.06;;;33.35;16.16
22662;BME280;11497;52.222;21.246;2023-05-22T09:06:04;100743.34;;;31.86;16.65
22662;BME280;11497;52.222;21.246;2023-05-22T09:08:37;100752.53;;;30.02;18.42
22662;BME280;11497;52.222;21.246;2023-05-22T09:11:06;100743.72;;;29.84;18.54
22662;BME280;11497;52.222;21.246;2023-05-22T09:13:33;100743.66;;;29.09;19.42
22662;BME280;11497;52.222;21.246;2023-05-22T09:16:09;100742.34;;;29.64;19.63
22662;BME280;11497;52.222;21.246;2023-05-22T09:18:38;100733.56;;;30.75;19.56
22662;BME280;11497;52.222;21.246;2023-05-22T09:21:07;100743.03;;;32.18;18.27
22662;BME280;11497;52.222;21.246;2023-05-22T09:23:59;100726.72;;;33.08;17.95
22662;BME280;11497;52.222;21.246;2023-05-22T09:26:28;100729.88;;;33.84;17.89
22662;BME280;11497;52.222;21.246;2023-05-22T09:28:58;100729.09;;;34.32;16.88
22662;BME280;11497;52.222;21.246;2023-05-22T09:31:30;100730.78;;;34.68;16.46
22662;BME280;11497;52.222;21.246;2023-05-22T09:33:58;100734.06;;;34.85;16.40
22662;BME280;11497;52.222;21.246;2023-05-22T09:36:30;100731.34;;;35.32;16.74
22662;BME280;11497;52.222;21.246;2023-05-22T09:39:02;100727.34;;;33.61;16.52
22662;BME280;11497;52.222;21.246;2023-05-22T09:41:36;100723.78;;;33.24;17.20
22662;BME280;11497;52.222;21.246;2023-05-22T09:44:24;100716.31;;;32.38;18.42
22662;BME280;11497;52.222;21.246;2023-05-22T09:46:54;100715.88;;;32.93;17.74
22662;BME280;11497;52.222;21.246;2023-05-22T09:49:22;100721.81;;;33.90;18.03
22662;BME280;11497;52.222;21.246;2023-05-22T09:51:52;100710.44;;;35.33;17.19
22662;BME280;11497;52.222;21.246;2023-05-22T09:54:21;100711.38;;;36.13;15.98
22662;BME280;11497;52.222;21.246;2023-05-22T09:56:56;100708.47;;;35.94;16.17
22662;BME280;11497;52.222;21.246;2023-05-22T09:59:27;100700.91;;;36.03;16.27
22662;BME280;11497;52.222;21.246;2023-05-22T10:01:57;100699.66;;;35.79;15.87
22662;BME280;11497;52.222;21.246;2023-05-22T10:04:31;100700.00;;;35.63;15.91
22662;BME280;11497;52.222;21.246;2023-05-22T10:07:01;100711.75;;;35.03;16.29
22662;BME280;11497;52.222;21.246;2023-05-22T10:09:31;100714.38;;;33.78;16.19
22662;BME280;11497;52.222;21.246;2023-05-22T10:12:05;100706.28;;;33.63;16.79
22662;BME280;11497;52.222;21.246;2023-05-22T10:14:34;100701.34;;;33.30;16.86
22662;BME280;11497;52.222;21.246;2023-05-22T10:17:03;100704.94;;;31.82;18.46
22662;BME280;11497;52.222;21.246;2023-05-22T10:19:35;100698.03;;;30.87;18.83
22662;BME280;11497;52.222;21.246;2023-05-22T10:22:08;100704.63;;;30.04;20.02
22662;BME280;11497;52.222;21.246;2023-05-22T10:24:38;100692.72;;;29.40;20.27
22662;BME280;11497;52.222;21.246;2023-05-22T10:27:07;100694.13;;;29.10;21.56
22662;BME280;11497;52.222;21.246;2023-05-22T10:32:39;100694.06;;;28.60;21.95
22662;BME280;11497;52.222;21.246;2023-05-22T10:35:55;100696.31;;;28.39;21.80
22662;BME280;11497;52.222;21.246;2023-05-22T10:40:52;100684.38;;;28.15;22.53
22662;BME280;11497;52.222;21.246;2023-05-22T10:43:22;100689.13;;;28.22;22.82
22662;BME280;11497;52.222;21.246;2023-05-22T10:46:04;100688.34;;;28.29;23.15
22662;BME280;11497;52.222;21.246;2023-05-22T10:48:37;100685.91;;;28.00;23.60
22662;BME280;11497;52.222;21.246;2023-05-22T10:51:06;100679.63;;;27.74;23.18
22662;BME280;11497;52.222;21.246;2023-05-22T10:53:35;100680.56;;;27.82;23.40
22662;BME280;11497;52.222;21.246;2023-05-22T10:56:12;100673.63;;;27.80;23.08
22662;BME280;11497;52.222;21.246;2023-05-22T10:58:55;100675.09;;;27.92;22.84
22662;BME280;11497;52.222;21.246;2023-05-22T11:01:26;100678.09;;;27.89;23.75
22662;BME280;11497;52.222;21.246;2023-05-22T11:06:43;100666.78;;;27.86;24.11
22662;BME280;11497;52.222;21.246;2023-05-22T11:12:23;100667.94;;;27.83;24.16
22662;BME280;11497;52.222;21.246;2023-05-22T11:14:56;100669.25;;;27.97;24.35
22662;BME280;11497;52.222;21.246;2023-05-22T11:17:32;100666.41;;;27.98;24.25
22662;BME280;11497;52.222;21.246;2023-05-22T11:20:03;100656.50;;;28.25;24.41
22662;BME280;11497;52.222;21.246;2023-05-22T11:25:18;100651.91;;;28.43;24.38
22662;BME280;11497;52.222;21.246;2023-05-22T11:27:47;100650.97;;;28.86;23.51
22662;BME280;11497;52.222;21.246;2023-05-22T11:30:16;100655.13;;;28.46;23.13
22662;BME280;11497;52.222;21.246;2023-05-22T11:32:45;100646.78;;;28.66;22.80
22662;BME280;11497;52.222;21.246;2023-05-22T11:35:16;100651.97;;;28.51;22.59
22662;BME280;11497;52.222;21.246;2023-05-22T11:37:44;100649.28;;;28.85;22.20
22662;BME280;11497;52.222;21.246;2023-05-22T11:40:20;100638.06;;;28.72;22.45
22662;BME280;11497;52.222;21.246;2023-05-22T11:42:48;100640.59;;;28.73;22.97
22662;BME280;11497;52.222;21.246;2023-05-22T11:45:16;100634.88;;;28.08;22.92
22662;BME280;11497;52.222;21.246;2023-05-22T11:47:44;100636.94;;;28.40;23.60
22662;BME280;11497;52.222;21.246;2023-05-22T11:50:13;100634.41;;;28.39;23.62
22662;BME280;11497;52.222;21.246;2023-05-22T11:52:49;100637.72;;;28.67;23.66
22662;BME280;11497;52.222;21.246;2023-05-22T11:55:21;100639.91;;;28.71;23.21
22662;BME280;11497;52.222;21.246;2023-05-22T11:57:49;100628.78;;;28.58;23.57
22662;BME280;11497;52.222;21.246;2023-05-22T12:00:17;100631.28;;;28.26;23.69
22662;BME280;11497;52.222;21.246;2023-05-22T12:02:45;100628.72;;;27.98;24.30
22662;BME280;11497;52.222;21.246;2023-05-22T12:05:20;100620.47;;;27.74;24.28
22662;BME280;11497;52.222;21.246;2023-05-22T12:07:48;100617.22;;;27.88;24.58
22662;BME280;11497;52.222;21.246;2023-05-22T12:10:16;100614.59;;;27.96;24.12
22662;BME280;11497;52.222;21.246;2023-05-22T12:12:44;100623.09;;;28.09;23.46
22662;BME280;11497;52.222;21.246;2023-05-22T12:15:18;100616.47;;;27.78;23.19
22662;BME280;11497;52.222;21.246;2023-05-22T12:17:49;100619.66;;;27.99;23.06
22662;BME280;11497;52.222;21.246;2023-05-22T12:20:21;100622.59;;;27.62;22.46
22662;BME280;11497;52.222;21.246;2023-05-22T12:22:49;100616.88;;;27.47;22.35
22662;BME280;11497;52.222;21.246;2023-05-22T12:25:17;100620.19;;;27.24;22.81
22662;BME280;11497;52.222;21.246;2023-05-22T12:27:45;100608.22;;;27.18;23.19
22662;BME280;11497;52.222;21.246;2023-05-22T12:30:13;100600.06;;;27.28;23.80
22662;BME280;11497;52.222;21.246;2023-05-22T12:32:46;100602.03;;;27.43;23.79
22662;BME280;11497;52.222;21.246;2023-05-22T12:35:16;100602.59;;;27.65;23.92
22662;BME280;11497;52.222;21.246;2023-05-22T12:37:50;100602.22;;;27.60;23.93
22662;BME280;11497;52.222;21.246;2023-05-22T12:40:19;100589.09;;;27.21;24.06
22662;BME280;11497;52.222;21.246;2023-05-22T12:42:47;100583.03;;;27.19;23.85
22662;BME280;11497;52.222;21.246;2023-05-22T12:45:15;100593.16;;;27.25;24.15
22662;BME280;11497;52.222;21.246;2023-05-22T12:47:44;100602.75;;;27.10;23.80
22662;BME280;11497;52.222;21.246;2023-05-22T12:50:13;100595.00;;;27.07;23.72
22662;BME280;11497;52.222;21.246;2023-05-22T12:52:41;100597.59;;;26.99;23.70
22662;BME280;11497;52.222;21.246;2023-05-22T12:55:10;100586.66;;;26.82;23.92
22662;BME280;11497;52.222;21.246;2023-05-22T12:57:38;100589.84;;;27.13;23.23
22662;BME280;11497;52.222;21.246;2023-05-22T13:00:06;100583.34;;;27.16;23.59
22662;BME280;11497;52.222;21.246;2023-05-22T13:02:34;100577.47;;;27.38;23.29
22662;BME280;11497;52.222;21.246;2023-05-22T13:05:02;100580.00;;;27.58;23.81
22662;BME280;11497;52.222;21.246;2023-05-22T13:07:31;100578.78;;;27.70;23.75
22662;BME280;11497;52.222;21.246;2023-05-22T13:09:59;100571.97;;;27.22;23.69
22662;BME280;11497;52.222;21.246;2023-05-22T13:12:26;100572.72;;;27.32;23.22
22662;BME280;11497;52.222;21.246;2023-05-22T13:14:55;100577.69;;;27.45;23.80
22662;BME280;11497;52.222;21.246;2023-05-22T13:17:22;100580.72;;;27.24;23.98
22662;BME280;11497;52.222;21.246;2023-05-22T13:19:52;100588.09;;;27.22;23.58
22662;BME280;11497;52.222;21.246;2023-05-22T13:22:21;100579.34;;;26.75;23.72
22662;BME280;11497;52.222;21.246;2023-05-22T13:24:49;100575.13;;;26.72;23.74
22662;BME280;11497;52.222;21.246;2023-05-22T13:27:17;100571.75;;;26.70;23.86